createdAt,value
2022-09-21T00:02:22.900Z,0.40
2022-09-21T00:07:31.603Z,0.43
2022-09-21T00:12:40.007Z,0.97
2022-09-21T00:17:51.367Z,0.17
2022-09-21T00:22:59.057Z,0.30
2022-09-21T00:28:05.783Z,1.40
2022-09-21T00:33:12.684Z,0.57
2022-09-21T00:38:19.449Z,0.80
2022-09-21T00:43:27.364Z,0.30
2022-09-21T00:48:36.854Z,0.30
2022-09-21T00:53:43.724Z,0.47
2022-09-21T00:58:53.400Z,0.30
2022-09-21T01:04:01.002Z,0.57
2022-09-21T01:09:09.391Z,0.40
2022-09-21T01:14:50.794Z,0.70
2022-09-21T01:20:23.691Z,0.23
2022-09-21T01:25:41.095Z,0.50
2022-09-21T01:30:49.744Z,0.30
2022-09-21T01:36:03.991Z,1.50
2022-09-21T01:41:15.220Z,0.73
2022-09-21T01:46:26.486Z,0.53
2022-09-21T01:51:36.121Z,0.77
2022-09-21T01:56:53.807Z,0.30
2022-09-21T02:02:05.025Z,0.20
2022-09-21T02:07:12.842Z,0.63
2022-09-21T02:12:19.576Z,0.27
2022-09-21T02:17:34.759Z,0.40
2022-09-21T02:22:52.058Z,0.60
2022-09-21T02:28:15.063Z,0.67
2022-09-21T02:33:32.751Z,0.40
2022-09-21T02:38:52.418Z,0.70
2022-09-21T02:44:07.538Z,0.50
2022-09-21T02:49:20.848Z,0.37
2022-09-21T02:54:31.506Z,0.90
2022-09-21T02:59:38.312Z,6.20
2022-09-21T03:04:51.546Z,0.97
2022-09-21T03:10:01.291Z,0.33
2022-09-21T03:15:09.332Z,0.93
2022-09-21T03:20:17.608Z,0.30
2022-09-21T03:25:25.006Z,0.80
2022-09-21T03:30:32.026Z,0.87
2022-09-21T03:35:39.002Z,2.27
2022-09-21T03:40:50.849Z,0.77
2022-09-21T03:45:59.940Z,0.30
2022-09-21T03:51:08.124Z,0.60
2022-09-21T03:56:14.800Z,0.50
2022-09-21T04:01:24.191Z,1.20
2022-09-21T04:06:32.349Z,0.73
2022-09-21T04:11:40.054Z,0.70
2022-09-21T04:16:46.787Z,1.27
2022-09-21T04:21:54.492Z,0.60
2022-09-21T04:27:01.887Z,1.17
2022-09-21T04:32:09.876Z,1.10
2022-09-21T04:37:16.531Z,1.40
2022-09-21T04:42:25.445Z,0.77
2022-09-21T04:47:33.645Z,1.50
2022-09-21T04:52:40.449Z,1.03
2022-09-21T04:57:47.629Z,6.40
2022-09-21T05:02:54.807Z,1.30
2022-09-21T05:08:01.533Z,2.50
2022-09-21T05:13:08.191Z,1.17
2022-09-21T05:18:14.897Z,4.30
2022-09-21T05:23:21.583Z,0.80
2022-09-21T05:28:30.126Z,0.83
2022-09-21T05:33:40.583Z,2.37
2022-09-21T05:38:48.188Z,7.10
2022-09-21T05:43:55.347Z,1.10
2022-09-21T05:49:18.724Z,1.67
2022-09-21T05:54:47.581Z,1.50
2022-09-21T06:00:01.254Z,2.00
2022-09-21T06:05:13.956Z,1.52
2022-09-21T06:10:21.895Z,1.17
2022-09-21T06:15:28.507Z,0.80
2022-09-21T06:20:35.276Z,3.97
2022-09-21T06:25:42.572Z,0.73
2022-09-21T06:30:56.130Z,0.93
2022-09-21T06:36:04.557Z,0.93
2022-09-21T06:41:11.267Z,1.80
2022-09-21T06:46:17.870Z,1.07
2022-09-21T06:51:24.528Z,0.90
2022-09-21T06:56:31.200Z,1.57
2022-09-21T07:01:37.978Z,2.90
2022-09-21T07:06:45.781Z,0.97
2022-09-21T07:11:52.488Z,1.37
2022-09-21T07:17:00.102Z,2.00
2022-09-21T07:22:06.800Z,1.93
2022-09-21T07:27:13.483Z,1.10
2022-09-21T07:32:20.919Z,0.53
2022-09-21T07:37:27.987Z,1.27
2022-09-21T07:42:35.391Z,0.87
2022-09-21T07:47:42.048Z,1.47
2022-09-21T07:52:48.726Z,1.80
2022-09-21T07:58:13.281Z,1.03
2022-09-21T08:08:26.367Z,2.77
2022-09-21T08:13:35.758Z,3.90
2022-09-21T08:18:43.997Z,1.20
2022-09-21T08:23:51.473Z,1.03
2022-09-21T08:28:59.544Z,0.63
2022-09-21T08:34:06.733Z,0.50
2022-09-21T08:39:14.325Z,1.10
2022-09-21T08:44:35.097Z,1.17
2022-09-21T08:49:46.303Z,1.80
2022-09-21T08:55:21.263Z,2.70
2022-09-21T09:05:55.755Z,1.57
2022-09-21T09:11:40.203Z,0.30
2022-09-21T09:16:51.393Z,0.80
2022-09-21T09:21:59.314Z,3.23
2022-09-21T09:27:32.989Z,0.97
2022-09-21T09:32:44.177Z,0.87
2022-09-21T09:37:54.376Z,1.33
2022-09-21T09:43:08.501Z,1.40
2022-09-21T09:48:34.452Z,0.83
2022-09-21T09:53:42.400Z,1999.90
2022-09-21T09:59:03.175Z,1999.90
2022-09-21T10:04:13.672Z,1999.90
2022-09-21T10:09:31.820Z,1999.90
2022-09-21T10:14:39.910Z,1999.90
2022-09-21T10:19:49.163Z,1999.90
2022-09-21T10:24:59.907Z,1999.90
2022-09-21T10:30:09.600Z,1999.90
2022-09-21T10:35:22.059Z,1999.90
2022-09-21T10:40:31.190Z,1999.90
2022-09-21T10:45:39.213Z,1999.90
2022-09-21T10:50:52.319Z,1999.90
2022-09-21T10:56:15.624Z,1999.90
2022-09-21T11:01:23.740Z,1999.90
2022-09-21T11:06:47.083Z,1999.90
2022-09-21T11:12:17.346Z,1999.90
2022-09-21T11:17:34.178Z,1999.90
2022-09-21T11:23:18.703Z,1999.90
2022-09-21T11:28:41.137Z,1999.90
2022-09-21T11:33:58.312Z,1999.90
2022-09-21T11:39:16.219Z,1999.90
2022-09-21T11:44:54.528Z,1999.90
2022-09-21T11:50:30.716Z,1999.90
2022-09-21T11:55:55.854Z,1999.90
2022-09-21T12:01:26.639Z,1999.90
2022-09-21T12:06:59.262Z,1999.90
2022-09-21T12:12:35.360Z,1999.90
2022-09-21T12:18:07.549Z,1999.90
2022-09-21T12:23:33.957Z,1999.90
2022-09-21T12:28:50.913Z,1999.90
2022-09-21T12:34:20.317Z,1999.90
2022-09-21T12:39:37.564Z,1999.90
2022-09-21T12:45:00.448Z,1999.90
2022-09-21T12:50:12.987Z,1999.90
2022-09-21T12:55:48.473Z,1999.90
2022-09-21T13:01:17.886Z,1999.90
2022-09-21T13:07:08.529Z,1999.90
2022-09-21T13:12:30.028Z,1999.90
2022-09-21T13:17:37.003Z,1999.90
2022-09-21T13:22:43.838Z,1999.90
2022-09-21T13:28:19.363Z,1999.90
2022-09-21T13:33:30.608Z,1999.90
2022-09-21T13:38:53.546Z,1999.90
2022-09-21T13:44:07.126Z,1999.90
2022-09-21T13:49:29.708Z,1999.90
2022-09-21T13:54:54.978Z,1999.90
2022-09-21T14:00:12.941Z,1999.90
2022-09-21T14:05:46.438Z,1999.90
2022-09-21T14:11:08.177Z,1999.90
2022-09-21T14:16:41.646Z,1999.90
2022-09-21T14:22:11.288Z,78.73
2022-09-21T14:27:28.404Z,48.07
2022-09-21T14:32:44.708Z,34.03
2022-09-21T14:37:58.778Z,20.00
2022-09-21T14:43:12.749Z,23.73
2022-09-21T14:53:54.655Z,0.40
2022-09-21T14:59:34.835Z,0.47
2022-09-21T15:05:11.415Z,0.40
2022-09-21T15:10:55.313Z,0.20
2022-09-21T15:16:29.280Z,0.20
2022-09-21T15:21:38.853Z,0.20
2022-09-21T15:26:45.548Z,0.30
2022-09-21T15:31:52.682Z,0.43
2022-09-21T15:37:16.935Z,0.30
2022-09-21T15:42:24.570Z,0.30
2022-09-21T15:47:31.243Z,0.20
2022-09-21T15:52:44.118Z,0.30
2022-09-21T15:57:56.529Z,0.37
2022-09-21T16:03:08.046Z,0.13
2022-09-21T16:08:25.555Z,0.20
2022-09-21T16:13:52.563Z,0.20
2022-09-21T16:19:01.286Z,0.10
2022-09-21T16:24:19.748Z,0.30
2022-09-21T16:29:31.138Z,0.20
2022-09-21T16:34:39.380Z,0.40
2022-09-21T16:39:46.503Z,0.20
2022-09-21T16:44:55.056Z,0.13
2022-09-21T16:50:02.390Z,0.40
2022-09-21T16:55:12.882Z,0.30
2022-09-21T17:00:23.075Z,0.20
2022-09-21T17:05:29.763Z,0.37
2022-09-21T17:10:42.039Z,0.80
2022-09-21T17:15:55.860Z,0.20
2022-09-21T17:21:05.269Z,0.20
2022-09-21T17:26:21.494Z,0.40
2022-09-21T17:31:29.758Z,1.00
2022-09-21T17:36:37.784Z,0.43
2022-09-21T17:42:08.742Z,0.20
2022-09-21T17:47:26.972Z,0.20
2022-09-21T17:52:56.344Z,0.20
2022-09-21T17:58:12.425Z,0.73
2022-09-21T18:03:31.649Z,0.20
2022-09-21T18:08:44.545Z,0.30
2022-09-21T18:14:18.987Z,0.30
2022-09-21T18:19:44.719Z,0.20
2022-09-21T18:24:56.008Z,0.30
2022-09-21T18:30:06.729Z,0.23
2022-09-21T18:35:24.199Z,0.33
2022-09-21T18:40:39.504Z,0.10
2022-09-21T18:45:56.703Z,0.20
2022-09-21T18:51:18.474Z,0.20
2022-09-21T18:56:37.549Z,0.20
2022-09-21T19:01:51.080Z,0.27
2022-09-21T19:07:06.120Z,0.47
2022-09-21T19:12:46.728Z,0.20
2022-09-21T19:18:09.954Z,0.20
2022-09-21T19:23:45.065Z,0.70
2022-09-21T19:34:26.752Z,0.80
2022-09-21T19:39:40.924Z,0.83
2022-09-21T19:45:06.096Z,0.50
2022-09-21T19:50:23.520Z,1.20
2022-09-21T19:55:52.798Z,0.70
2022-09-21T20:01:02.417Z,2.03
2022-09-21T20:06:25.057Z,1.20
2022-09-21T20:12:04.541Z,0.63
2022-09-21T20:17:19.685Z,1.03
2022-09-21T20:22:42.275Z,0.83
2022-09-21T20:27:57.521Z,0.60
2022-09-21T20:33:08.132Z,0.40
2022-09-21T20:38:16.050Z,1.83
2022-09-21T20:43:31.718Z,1.43
2022-09-21T20:48:35.136Z,0.80
2022-09-21T20:53:45.062Z,1.37
2022-09-21T20:58:53.830Z,1.60
2022-09-21T21:04:02.267Z,5.67
2022-09-21T21:09:10.466Z,0.70
2022-09-21T21:14:21.151Z,1.80
2022-09-21T21:19:30.500Z,0.60
2022-09-21T21:24:43.402Z,0.80
2022-09-21T21:29:56.846Z,1.43
2022-09-21T21:35:06.823Z,1.90
2022-09-21T21:40:16.391Z,0.70
2022-09-21T21:45:25.131Z,1.10
2022-09-21T21:50:34.765Z,1.67
2022-09-21T21:55:46.417Z,1.03
2022-09-21T22:00:53.285Z,1.07
2022-09-21T22:06:02.111Z,0.90
2022-09-21T22:11:10.342Z,2.10
2022-09-21T22:16:23.106Z,1.20
2022-09-21T22:21:39.115Z,0.72
2022-09-21T22:26:50.261Z,0.93
2022-09-21T22:31:57.922Z,1.87
2022-09-21T22:37:08.693Z,1.37
2022-09-21T22:42:15.741Z,1.67
2022-09-21T22:47:24.243Z,2.03
2022-09-21T22:52:30.988Z,1.23
2022-09-21T22:57:37.686Z,1.77
2022-09-21T23:02:45.341Z,0.60
2022-09-21T23:07:59.261Z,0.60
2022-09-21T23:13:07.082Z,1.17
2022-09-21T23:18:14.803Z,0.80
2022-09-21T23:23:22.364Z,1.40
2022-09-21T23:28:32.838Z,1.13
2022-09-21T23:33:48.301Z,0.60
2022-09-21T23:38:58.637Z,1.10
2022-09-21T23:44:09.437Z,0.90
2022-09-21T23:49:20.965Z,1.03
2022-09-21T23:54:29.241Z,0.60
2022-09-21T23:59:36.256Z,1.33
